Time;durP1;ratioP1;P1;durP2;ratioP2;P2;SDS_P1;SDS_P2;PMS_P1;PMS_P2;Temp;Humidity;BMP_temperature;BMP_pressure;BME280_temperature;BME280_humidity;BME280_pressure;Samples;Min_cycle;Max_cycle;Signal;HPM_P1;HPM_P2
2022/09/14 00:02:13;;;;;;;;;;;;;;;16.89;79.98;97291.09;5041924;28;20532;-72
2022/09/14 00:05:02;;;;;;;;;;;;;;;16.88;79.74;97293.03;5030589;28;19925;-72
2022/09/14 00:07:51;;;;;;;;;;;;;;;16.87;80.05;97287.94;5046101;28;19928;-72
2022/09/14 00:10:40;;;;;;;;;;;;;;;16.86;79.95;97286.34;5041388;28;19931;-72
2022/09/14 00:13:28;;;;;;;;;;;;;;;16.86;79.90;97283.59;5022866;28;20610;-71
2022/09/14 00:16:20;;;;;;;;;;;;;;;16.85;79.64;97287.50;5046230;28;19933;-72
2022/09/14 00:19:09;;;;;;;;;;;;;;;16.84;79.88;97272.22;5046132;28;20394;-72
2022/09/14 00:21:58;;;;;;;;;;;;;;;16.85;80.07;97265.56;5032684;28;20091;-72
2022/09/14 00:24:47;;;;;;;;;;;;;;;16.82;79.98;97255.31;5029881;28;19929;-72
2022/09/14 00:27:36;;;;;;;;;;;;;;;16.80;80.04;97258.44;5045379;28;19936;-72
2022/09/14 00:30:28;;;;;;;;;;;;;;;16.76;80.44;97241.91;5026778;28;19929;-72
2022/09/14 00:33:16;;;;;;;;;;;;;;;16.79;80.10;97242.34;5031101;28;19978;-72
2022/09/14 00:36:06;;;;;;;;;;;;;;;16.80;80.05;97252.16;5032808;28;19925;-72
2022/09/14 00:38:55;;;;;;;;;;;;;;;16.76;80.13;97254.84;5045238;28;19936;-72
2022/09/14 00:41:45;;;;;;;;;;;;;;;16.74;80.18;97249.72;5045878;28;20449;-72
2022/09/14 00:44:53;;;;;;;;;;;;;;;16.74;80.25;97249.72;5022979;28;20500;-72
2022/09/14 00:47:42;;;;;;;;;;;;;;;16.77;80.19;97245.44;5015368;28;20527;-72
2022/09/14 00:50:30;;;;;;;;;;;;;;;16.76;80.31;97241.13;5013769;28;19932;-72
2022/09/14 00:53:43;;;;;;;;;;;;;;;16.74;80.32;97233.25;5008589;28;19933;-72
2022/09/14 00:56:31;;;;;;;;;;;;;;;16.71;80.59;97235.94;5006635;28;19929;-72
2022/09/14 00:59:23;;;;;;;;;;;;;;;16.68;80.83;97234.72;5012584;28;19936;-72
2022/09/14 01:02:13;;;;;;;;;;;;;;;16.66;81.00;97230.72;5012799;28;19929;-72
2022/09/14 01:05:02;;;;;;;;;;;;;;;16.64;81.32;97228.38;5025228;28;19937;-72
2022/09/14 01:08:00;;;;;;;;;;;;;;;16.66;81.09;97226.03;5008383;28;19925;-72
2022/09/14 01:10:53;;;;;;;;;;;;;;;16.67;81.21;97224.09;5019308;28;19932;-73
2022/09/14 01:13:42;;;;;;;;;;;;;;;16.66;81.47;97208.78;5020429;28;20067;-72
2022/09/14 01:16:34;;;;;;;;;;;;;;;16.64;81.40;97194.66;5007069;28;19935;-72
2022/09/14 01:19:24;;;;;;;;;;;;;;;16.64;81.25;97192.72;5024459;28;20043;-72
2022/09/14 01:25:40;;;;;;;;;;;;;;;16.61;81.33;97182.47;5024395;28;19925;-72
2022/09/14 01:28:55;;;;;;;;;;;;;;;16.60;81.19;97194.59;5025775;28;19925;-71
2022/09/14 01:31:46;;;;;;;;;;;;;;;16.59;81.31;97193.03;5025709;28;19925;-71
2022/09/14 01:34:38;;;;;;;;;;;;;;;16.59;81.51;97186.75;5016849;28;19932;-72
2022/09/14 01:37:27;;;;;;;;;;;;;;;16.59;81.57;97192.25;5012139;28;20012;-72
2022/09/14 01:40:16;;;;;;;;;;;;;;;16.58;81.69;97187.91;5010269;28;19929;-71
2022/09/14 01:43:07;;;;;;;;;;;;;;;16.55;81.78;97181.22;5035018;28;19932;-72
2022/09/14 01:45:58;;;;;;;;;;;;;;;16.57;81.83;97184.38;5038916;28;19925;-71
2022/09/14 01:48:48;;;;;;;;;;;;;;;16.57;82.01;97176.16;5041859;28;20324;-72
2022/09/14 01:52:02;;;;;;;;;;;;;;;16.55;82.24;97175.72;5041677;28;19970;-72
2022/09/14 01:54:52;;;;;;;;;;;;;;;16.53;82.44;97178.06;5029337;28;19931;-72
2022/09/14 01:57:41;;;;;;;;;;;;;;;16.54;82.37;97174.16;5044929;28;19954;-71
2022/09/14 02:00:29;;;;;;;;;;;;;;;16.56;82.54;97173.78;5037263;28;19932;-71
2022/09/14 02:03:20;;;;;;;;;;;;;;;16.57;83.00;97175.38;5027502;28;20343;-72
2022/09/14 02:06:09;;;;;;;;;;;;;;;16.56;82.83;97169.06;5029040;28;19925;-71
2022/09/14 02:08:59;;;;;;;;;;;;;;;16.51;83.30;97169.38;5035846;28;19924;-72
2022/09/14 02:11:47;;;;;;;;;;;;;;;16.53;83.04;97164.34;5018645;28;19929;-72
2022/09/14 02:14:35;;;;;;;;;;;;;;;16.53;83.11;97161.59;5045360;28;19925;-72
2022/09/14 02:17:23;;;;;;;;;;;;;;;16.49;83.42;97155.25;5044469;28;19928;-72
2022/09/14 02:20:19;;;;;;;;;;;;;;;16.48;83.52;97159.16;5027938;28;20036;-72
2022/09/14 02:23:07;;;;;;;;;;;;;;;16.46;83.54;97156.81;5030719;28;19925;-72
2022/09/14 02:25:55;;;;;;;;;;;;;;;16.47;83.78;97149.38;5029816;28;19924;-72
2022/09/14 02:28:44;;;;;;;;;;;;;;;16.48;83.80;97149.00;5037269;28;19933;-72
2022/09/14 02:31:34;;;;;;;;;;;;;;;16.48;83.69;97137.25;5028901;28;20654;-71
2022/09/14 02:34:24;;;;;;;;;;;;;;;16.48;83.64;97129.81;5043392;28;19925;-72
2022/09/14 02:37:25;;;;;;;;;;;;;;;16.47;83.62;97130.97;5031451;28;19933;-71
2022/09/14 02:40:13;;;;;;;;;;;;;;;16.47;83.75;97111.78;5031350;28;20588;-71
2022/09/14 02:43:05;;;;;;;;;;;;;;;16.52;83.55;97098.91;5039050;28;19925;-71
2022/09/14 02:45:55;;;;;;;;;;;;;;;16.47;83.50;97100.03;5028831;28;20409;-71
2022/09/14 02:48:44;;;;;;;;;;;;;;;16.47;83.56;97091.78;5044797;28;19924;-71
2022/09/14 02:51:33;;;;;;;;;;;;;;;16.45;83.47;97086.66;5019998;28;20542;-71
2022/09/14 02:54:25;;;;;;;;;;;;;;;16.43;83.55;97080.75;5039491;28;19929;-72
2022/09/14 02:57:13;;;;;;;;;;;;;;;16.42;84.06;97084.66;5017575;28;20405;-72
2022/09/14 03:00:02;;;;;;;;;;;;;;;16.41;84.37;97082.31;5027114;28;19991;-72
2022/09/14 03:02:50;;;;;;;;;;;;;;;16.40;83.71;97083.44;5024396;28;19954;-72
2022/09/14 03:05:40;;;;;;;;;;;;;;;16.37;83.88;97078.72;5029703;28;20287;-72
2022/09/14 03:08:29;;;;;;;;;;;;;;;16.36;83.84;97086.16;5042873;28;20385;-72
2022/09/14 03:11:20;;;;;;;;;;;;;;;16.35;84.13;97095.53;5044299;28;19932;-72
2022/09/14 03:14:09;;;;;;;;;;;;;;;16.37;83.96;97106.13;5043535;28;19924;-72
2022/09/14 03:16:57;;;;;;;;;;;;;;;16.37;83.95;97114.34;5023633;28;19928;-72
2022/09/14 03:19:46;;;;;;;;;;;;;;;16.37;84.41;97130.81;5030267;28;19936;-72
2022/09/14 03:22:34;;;;;;;;;;;;;;;16.39;84.28;97150.41;5029244;28;19925;-72
2022/09/14 03:25:22;;;;;;;;;;;;;;;16.40;84.25;97176.66;5022574;28;19928;-72
2022/09/14 03:28:12;;;;;;;;;;;;;;;16.42;84.35;97171.63;5039283;28;20487;-72
2022/09/14 03:31:00;;;;;;;;;;;;;;;16.40;84.50;97174.69;5031559;28;19928;-72
2022/09/14 03:33:52;;;;;;;;;;;;;;;16.40;84.62;97179.41;5046670;28;19925;-72
2022/09/14 03:36:40;;;;;;;;;;;;;;;16.40;84.68;97168.44;5033810;28;19925;-72
2022/09/14 03:39:28;;;;;;;;;;;;;;;16.41;84.86;97170.81;5033379;28;19925;-72
2022/09/14 03:42:16;;;;;;;;;;;;;;;16.39;85.28;97166.84;5044049;28;19932;-72
2022/09/14 03:45:07;;;;;;;;;;;;;;;16.40;84.89;97171.16;5032004;28;19925;-72
2022/09/14 03:47:54;;;;;;;;;;;;;;;16.38;85.62;97176.25;5018692;28;20034;-72
2022/09/14 03:50:43;;;;;;;;;;;;;;;16.35;86.21;97175.03;5045015;28;20024;-71
2022/09/14 03:53:31;;;;;;;;;;;;;;;16.36;86.17;97168.38;5043345;28;19935;-72
2022/09/14 03:56:20;;;;;;;;;;;;;;;16.39;86.62;97161.38;5032753;28;19932;-71
2022/09/14 03:59:08;;;;;;;;;;;;;;;16.39;87.19;97144.91;5032187;28;20288;-73
2022/09/14 04:02:24;;;;;;;;;;;;;;;16.35;87.80;97119.41;5044895;28;19924;-74
2022/09/14 04:05:14;;;;;;;;;;;;;;;16.31;88.05;97113.09;5047271;28;19925;-73
2022/09/14 04:08:06;;;;;;;;;;;;;;;16.29;88.65;97107.16;5037777;28;19929;-73
2022/09/14 04:10:55;;;;;;;;;;;;;;;16.27;88.92;97104.00;5045015;28;19925;-73
2022/09/14 04:13:43;;;;;;;;;;;;;;;16.27;89.40;97098.53;5031510;28;20310;-73
2022/09/14 04:16:31;;;;;;;;;;;;;;;16.26;90.11;97111.44;5044703;28;19929;-73
2022/09/14 04:19:21;;;;;;;;;;;;;;;16.23;90.77;97107.47;5038898;28;19975;-73
2022/09/14 04:25:23;;;;;;;;;;;;;;;16.18;91.59;97134.41;5041074;28;20573;-73
2022/09/14 04:28:12;;;;;;;;;;;;;;;16.12;91.91;97135.88;5026306;28;19937;-73
2022/09/14 04:31:08;;;;;;;;;;;;;;;16.11;91.95;97118.66;5041906;28;19964;-73
2022/09/14 04:33:56;;;;;;;;;;;;;;;16.15;92.01;97114.03;5036662;28;20240;-78
2022/09/14 04:36:46;;;;;;;;;;;;;;;16.16;92.32;97112.06;5038846;28;19925;-73
2022/09/14 04:39:35;;;;;;;;;;;;;;;16.16;92.67;97115.59;5030393;28;20353;-73
2022/09/14 04:42:23;;;;;;;;;;;;;;;16.15;92.54;97113.22;5044464;28;19940;-73
2022/09/14 04:45:12;;;;;;;;;;;;;;;16.18;92.97;97107.00;5027468;28;19935;-73
2022/09/14 04:48:00;;;;;;;;;;;;;;;16.16;92.68;97087.41;5028781;28;19974;-74
2022/09/14 04:50:48;;;;;;;;;;;;;;;16.17;92.03;97072.53;5024420;28;19932;-75
2022/09/14 04:53:38;;;;;;;;;;;;;;;16.17;91.65;97064.31;5021975;28;19935;-73
2022/09/14 04:56:27;;;;;;;;;;;;;;;16.15;91.56;97053.72;5027876;28;19936;-74
2022/09/14 05:02:29;;;;;;;;;;;;;;;16.15;92.76;97070.19;5044697;28;19925;-75
2022/09/14 05:05:18;;;;;;;;;;;;;;;16.12;92.55;97076.38;5043736;28;19925;-74
2022/09/14 05:08:06;;;;;;;;;;;;;;;16.10;92.73;97078.72;5040806;28;19924;-76
2022/09/14 05:10:56;;;;;;;;;;;;;;;16.10;92.95;97084.19;5041835;28;19931;-74
2022/09/14 05:13:44;;;;;;;;;;;;;;;16.12;93.18;97087.34;5035617;28;19936;-75
2022/09/14 05:16:37;;;;;;;;;;;;;;;16.13;92.65;97077.16;5039893;28;20354;-74
2022/09/14 05:19:25;;;;;;;;;;;;;;;16.15;92.29;97070.19;5030354;28;20017;-74
2022/09/14 05:22:14;;;;;;;;;;;;;;;16.12;92.45;97061.88;5037514;28;20410;-75
2022/09/14 05:25:26;;;;;;;;;;;;;;;16.11;92.59;97063.06;5028393;28;19929;-80
2022/09/14 05:28:15;;;;;;;;;;;;;;;16.09;92.80;97057.94;5037598;28;20075;-77
2022/09/14 05:31:04;;;;;;;;;;;;;;;16.12;92.94;97053.66;5017962;28;20516;-75
2022/09/14 05:33:52;;;;;;;;;;;;;;;16.09;92.54;97044.25;5035031;28;19991;-73
2022/09/14 05:36:40;;;;;;;;;;;;;;;16.11;92.66;97039.19;5031551;28;19925;-73
2022/09/14 05:39:31;;;;;;;;;;;;;;;16.11;92.79;97036.44;5040307;28;19926;-74
2022/09/14 05:42:19;;;;;;;;;;;;;;;16.11;92.78;97033.69;5040787;28;19933;-74
2022/09/14 05:45:10;;;;;;;;;;;;;;;16.12;92.92;97037.22;5032320;28;19929;-74
2022/09/14 05:48:00;;;;;;;;;;;;;;;16.11;93.10;97030.97;5030180;28;20350;-74
2022/09/14 05:50:57;;;;;;;;;;;;;;;16.10;93.09;97026.66;5021789;28;19939;-74
2022/09/14 05:53:47;;;;;;;;;;;;;;;16.14;93.08;97032.97;5041091;28;19925;-74
2022/09/14 05:56:37;;;;;;;;;;;;;;;16.14;92.91;97030.25;5045554;28;19951;-73
2022/09/14 05:59:26;;;;;;;;;;;;;;;16.14;93.23;97023.94;5037375;28;19925;-74
2022/09/14 06:02:15;;;;;;;;;;;;;;;16.17;93.24;97012.25;5044750;28;19928;-74
2022/09/14 06:05:05;;;;;;;;;;;;;;;16.11;92.78;97020.00;5036627;28;19932;-74
2022/09/14 06:07:54;;;;;;;;;;;;;;;16.15;93.18;97023.59;5026436;28;19935;-74
2022/09/14 06:10:42;;;;;;;;;;;;;;;16.13;93.18;97019.63;5044207;28;19924;-74
2022/09/14 06:13:30;;;;;;;;;;;;;;;16.15;92.86;97006.38;5036339;28;19925;-74
2022/09/14 06:16:19;;;;;;;;;;;;;;;16.12;92.69;97010.63;5029976;28;20062;-74
2022/09/14 06:19:08;;;;;;;;;;;;;;;16.11;92.99;97006.31;5029110;28;19936;-75
2022/09/14 06:22:21;;;;;;;;;;;;;;;16.11;92.72;97017.25;5037611;28;20014;-74
2022/09/14 06:25:13;;;;;;;;;;;;;;;16.15;93.10;97004.41;5042909;28;19963;-74
2022/09/14 06:31:14;;;;;;;;;;;;;;;16.11;92.92;96987.13;5030494;28;20448;-74
2022/09/14 06:34:02;;;;;;;;;;;;;;;16.12;93.17;96980.47;5020750;28;19928;-73
2022/09/14 06:36:52;;;;;;;;;;;;;;;16.12;92.91;96976.94;5026819;28;19929;-74
2022/09/14 06:39:40;;;;;;;;;;;;;;;16.10;92.94;96984.75;5029907;28;19935;-74
2022/09/14 06:42:29;;;;;;;;;;;;;;;16.10;93.32;96985.53;5031353;28;19936;-74
2022/09/14 06:45:17;;;;;;;;;;;;;;;16.12;93.54;96987.91;5037292;28;20025;-74
2022/09/14 06:48:05;;;;;;;;;;;;;;;16.13;93.70;96984.78;5029869;28;19969;-74
2022/09/14 06:50:54;;;;;;;;;;;;;;;16.17;93.79;96990.34;5029817;28;19927;-75
2022/09/14 06:53:44;;;;;;;;;;;;;;;16.16;94.00;96989.53;5029594;28;19937;-74
2022/09/14 06:56:33;;;;;;;;;;;;;;;16.14;93.86;97002.84;5030682;28;19951;-74
2022/09/14 06:59:24;;;;;;;;;;;;;;;16.13;93.82;96992.22;5043324;28;19925;-74
2022/09/14 07:02:14;;;;;;;;;;;;;;;16.13;94.08;97001.22;5028198;28;20018;-74
2022/09/14 07:05:03;;;;;;;;;;;;;;;16.14;94.12;97002.03;5046324;28;19987;-74
2022/09/14 07:07:52;;;;;;;;;;;;;;;16.13;94.03;97003.19;5047415;28;19986;-75
2022/09/14 07:11:07;;;;;;;;;;;;;;;16.17;94.23;97006.78;5050465;28;19928;-74
2022/09/14 07:13:57;;;;;;;;;;;;;;;16.16;94.05;97003.25;5032701;28;20033;-74
2022/09/14 07:16:45;;;;;;;;;;;;;;;16.17;94.09;97001.28;5049249;28;19940;-74
2022/09/14 07:19:34;;;;;;;;;;;;;;;16.19;94.21;97005.25;5047436;28;19933;-74
2022/09/14 07:25:34;;;;;;;;;;;;;;;16.20;94.40;97001.34;5021417;28;19928;-74
2022/09/14 07:28:24;;;;;;;;;;;;;;;16.24;94.53;96998.63;5032942;28;19925;-74
2022/09/14 07:31:17;;;;;;;;;;;;;;;16.28;94.44;96998.69;5047260;28;19925;-74
2022/09/14 07:34:08;;;;;;;;;;;;;;;16.31;94.29;96989.75;5038899;28;20448;-74
2022/09/14 07:36:56;;;;;;;;;;;;;;;16.32;94.10;96989.38;5033940;28;19933;-74
2022/09/14 07:39:45;;;;;;;;;;;;;;;16.37;93.83;96988.25;5047724;28;19928;-74
2022/09/14 07:42:33;;;;;;;;;;;;;;;16.36;93.88;96989.44;5040462;28;19924;-74
2022/09/14 07:45:23;;;;;;;;;;;;;;;16.36;93.95;96994.91;5038358;28;19932;-74
2022/09/14 07:48:13;;;;;;;;;;;;;;;16.38;93.75;96989.84;5033125;28;19935;-74
2022/09/14 07:51:02;;;;;;;;;;;;;;;16.40;93.86;96998.47;5041410;28;19925;-75
2022/09/14 07:53:50;;;;;;;;;;;;;;;16.45;93.62;96989.91;5029574;28;20374;-74
2022/09/14 07:56:39;;;;;;;;;;;;;;;16.45;93.64;96998.94;5027130;28;19936;-74
2022/09/14 07:59:27;;;;;;;;;;;;;;;16.48;93.52;96998.19;5042890;28;19931;-73
2022/09/14 08:02:27;;;;;;;;;;;;;;;16.54;93.80;96998.66;5047095;28;20516;-74
2022/09/14 08:08:28;;;;;;;;;;;;;;;16.59;93.35;97006.56;5039539;28;19928;-74
2022/09/14 08:11:18;;;;;;;;;;;;;;;16.61;93.40;97015.19;5048846;28;20276;-74
2022/09/14 08:14:08;;;;;;;;;;;;;;;16.62;93.19;97003.09;5048388;28;20650;-74
2022/09/14 08:16:56;;;;;;;;;;;;;;;16.63;93.37;97001.13;5045984;28;19940;-74
2022/09/14 08:19:46;;;;;;;;;;;;;;;16.64;93.30;97000.75;5047604;28;19929;-75
2022/09/14 08:22:34;;;;;;;;;;;;;;;16.66;93.34;97000.38;5039868;28;19936;-74
2022/09/14 08:25:22;;;;;;;;;;;;;;;16.69;93.44;96999.63;5047112;28;20427;-74
2022/09/14 08:28:10;;;;;;;;;;;;;;;16.70;93.36;97003.94;5046805;28;19932;-74
2022/09/14 08:31:02;;;;;;;;;;;;;;;16.70;93.52;97007.47;5047394;28;19956;-74
2022/09/14 08:33:51;;;;;;;;;;;;;;;16.72;93.48;97005.22;5031404;28;19989;-74
2022/09/14 08:36:41;;;;;;;;;;;;;;;16.74;93.54;97005.59;5046446;28;19936;-74
2022/09/14 08:39:29;;;;;;;;;;;;;;;16.79;93.65;97009.19;5047132;28;20538;-74
2022/09/14 08:42:17;;;;;;;;;;;;;;;16.81;93.54;97015.09;5034861;28;19936;-74
2022/09/14 08:45:06;;;;;;;;;;;;;;;16.82;93.39;97013.91;5045560;28;20524;-74
2022/09/14 08:47:56;;;;;;;;;;;;;;;16.81;93.34;97002.16;5045782;28;19970;-74
2022/09/14 08:50:45;;;;;;;;;;;;;;;16.86;93.36;96998.28;5047051;28;20514;-75
2022/09/14 08:53:35;;;;;;;;;;;;;;;16.90;93.30;97007.38;5046306;28;20622;-74
2022/09/14 08:56:25;;;;;;;;;;;;;;;16.94;93.39;97003.50;5037349;28;19925;-74
2022/09/14 08:59:24;;;;;;;;;;;;;;;16.96;93.35;97008.59;5045482;28;20287;-74
2022/09/14 09:02:34;;;;;;;;;;;;;;;16.99;93.44;97008.66;5046325;28;19933;-74
2022/09/14 09:05:29;;;;;;;;;;;;;;;17.03;93.42;97016.91;5046713;28;19999;-74
2022/09/14 09:08:18;;;;;;;;;;;;;;;17.07;93.51;97016.94;5039676;28;19929;-74
2022/09/14 09:11:09;;;;;;;;;;;;;;;17.08;93.53;97026.75;5041083;28;19928;-74
2022/09/14 09:13:56;;;;;;;;;;;;;;;17.12;93.37;97020.16;5040426;28;19950;-73
2022/09/14 09:16:45;;;;;;;;;;;;;;;17.14;93.40;97028.78;5047375;28;19932;-73
2022/09/14 09:19:34;;;;;;;;;;;;;;;17.15;93.50;97035.88;5046428;28;19932;-73
2022/09/14 09:22:28;;;;;;;;;;;;;;;17.18;93.69;97017.84;5036433;28;19929;-74
2022/09/14 09:25:19;;;;;;;;;;;;;;;17.23;93.61;97026.53;5046488;28;19985;-74
2022/09/14 09:28:10;;;;;;;;;;;;;;;17.27;93.41;97029.34;5045605;28;19932;-73
2022/09/14 09:31:00;;;;;;;;;;;;;;;17.33;93.80;97032.53;5038378;28;19925;-73
2022/09/14 09:34:05;;;;;;;;;;;;;;;17.38;93.57;97043.16;5016464;28;19929;-73
2022/09/14 09:36:54;;;;;;;;;;;;;;;17.42;93.40;97052.22;5044715;28;19952;-74
2022/09/14 09:39:42;;;;;;;;;;;;;;;17.47;93.07;97055.44;5031298;28;19975;-73
2022/09/14 09:42:31;;;;;;;;;;;;;;;17.49;92.60;97061.31;5018415;28;20020;-74
2022/09/14 09:45:21;;;;;;;;;;;;;;;17.51;92.67;97066.44;5028626;28;19929;-73
2022/09/14 09:48:09;;;;;;;;;;;;;;;17.51;92.62;97063.69;5045544;28;20462;-74
2022/09/14 09:51:00;;;;;;;;;;;;;;;17.52;92.38;97068.81;5024200;28;19925;-74
2022/09/14 09:53:50;;;;;;;;;;;;;;;17.56;92.46;97077.06;5026888;28;19940;-74
2022/09/14 09:56:39;;;;;;;;;;;;;;;17.55;92.57;97083.75;5035392;28;19924;-74
2022/09/14 09:59:31;;;;;;;;;;;;;;;17.55;92.49;97089.22;5031027;28;20106;-74
2022/09/14 10:02:22;;;;;;;;;;;;;;;17.58;92.50;97096.72;5023398;28;19932;-74
2022/09/14 10:05:18;;;;;;;;;;;;;;;17.60;92.49;97099.88;5033922;28;19929;-74
2022/09/14 10:08:14;;;;;;;;;;;;;;;17.60;92.71;97088.09;5034864;28;19928;-74
2022/09/14 10:11:02;;;;;;;;;;;;;;;17.62;92.92;97083.00;5033753;28;19936;-74
2022/09/14 10:13:50;;;;;;;;;;;;;;;17.67;92.68;97079.94;5035040;28;19929;-74
2022/09/14 10:16:39;;;;;;;;;;;;;;;17.76;92.72;97078.47;5044037;28;19932;-74
2022/09/14 10:19:29;;;;;;;;;;;;;;;17.84;92.40;97056.56;5044853;28;19932;-74
2022/09/14 10:25:34;;;;;;;;;;;;;;;18.06;91.50;97030.84;5034224;28;19935;-74
2022/09/14 10:28:23;;;;;;;;;;;;;;;18.11;91.42;97037.91;5027529;28;19925;-75
2022/09/14 10:31:13;;;;;;;;;;;;;;;18.15;91.16;97042.28;5025963;28;19940;-75
2022/09/14 10:34:01;;;;;;;;;;;;;;;18.24;91.19;97044.72;5021292;28;20382;-74
2022/09/14 10:36:53;;;;;;;;;;;;;;;18.33;91.10;97040.44;5041318;28;20454;-74
2022/09/14 10:39:43;;;;;;;;;;;;;;;18.41;90.90;97040.50;5044336;28;19932;-74
2022/09/14 10:42:35;;;;;;;;;;;;;;;18.49;90.37;97028.38;5024244;28;19970;-74
2022/09/14 10:45:24;;;;;;;;;;;;;;;18.58;90.29;97026.81;5026494;28;19932;-74
2022/09/14 10:48:24;;;;;;;;;;;;;;;18.66;89.34;97026.88;5017342;28;19932;-74
2022/09/14 10:51:22;;;;;;;;;;;;;;;18.75;88.93;97027.31;5042218;28;20319;-74
2022/09/14 10:54:25;;;;;;;;;;;;;;;18.81;87.91;97018.34;5044215;28;20039;-74
2022/09/14 10:57:15;;;;;;;;;;;;;;;18.86;87.66;97016.41;5029102;28;19929;-74
2022/09/14 11:00:08;;;;;;;;;;;;;;;18.86;87.57;97016.41;5044247;28;20034;-74
2022/09/14 11:03:06;;;;;;;;;;;;;;;18.82;87.60;97013.63;5032939;28;20630;-74
2022/09/14 11:05:57;;;;;;;;;;;;;;;18.84;87.80;97012.03;5041978;28;19925;-74
2022/09/14 11:08:46;;;;;;;;;;;;;;;18.92;86.59;97020.34;5029543;28;20038;-74
2022/09/14 11:11:39;;;;;;;;;;;;;;;18.94;85.99;97035.28;5037019;28;19952;-74
2022/09/14 11:14:36;;;;;;;;;;;;;;;19.00;85.83;97028.22;5044114;28;19931;-74
2022/09/14 11:17:30;;;;;;;;;;;;;;;19.06;84.48;97025.88;5036792;28;20291;-74
2022/09/14 11:20:43;;;;;;;;;;;;;;;19.05;83.87;97030.59;5039716;28;20415;-74
2022/09/14 11:23:36;;;;;;;;;;;;;;;19.10;83.90;97023.94;5039963;28;20362;-74
2022/09/14 11:26:25;;;;;;;;;;;;;;;19.15;83.83;97009.00;5030012;28;20375;-74
2022/09/14 11:29:18;;;;;;;;;;;;;;;19.25;83.40;97005.50;5033660;28;20028;-74
2022/09/14 11:32:32;;;;;;;;;;;;;;;19.29;83.24;96990.56;5045004;28;19925;-74
2022/09/14 11:35:23;;;;;;;;;;;;;;;19.37;83.29;97002.34;5029149;28;19928;-74
2022/09/14 11:38:12;;;;;;;;;;;;;;;19.42;82.99;96996.47;5033120;28;19998;-75
2022/09/14 11:41:08;;;;;;;;;;;;;;;19.49;81.74;96996.47;5034239;28;19924;-75
2022/09/14 11:43:57;;;;;;;;;;;;;;;19.56;81.44;96987.44;5037578;28;19935;-75
2022/09/14 11:46:46;;;;;;;;;;;;;;;19.62;81.43;96989.44;5029230;28;19931;-75
2022/09/14 11:49:47;;;;;;;;;;;;;;;19.62;81.76;96985.91;5029447;28;20027;-75
2022/09/14 11:52:35;;;;;;;;;;;;;;;19.58;81.44;96980.34;5044006;28;20019;-75
2022/09/14 11:55:23;;;;;;;;;;;;;;;19.67;81.49;96980.00;5043589;28;19987;-75
2022/09/14 11:58:15;;;;;;;;;;;;;;;19.73;80.37;96978.41;5033238;28;20047;-75
2022/09/14 12:01:04;;;;;;;;;;;;;;;19.77;80.22;96956.38;5044601;28;19928;-75
2022/09/14 12:04:08;;;;;;;;;;;;;;;19.75;79.77;96975.25;5046353;28;19933;-75
2022/09/14 12:06:57;;;;;;;;;;;;;;;19.69;80.25;96969.34;5022243;28;20617;-75
2022/09/14 12:09:46;;;;;;;;;;;;;;;19.69;80.39;96968.56;5028250;28;19925;-73
2022/09/14 12:12:35;;;;;;;;;;;;;;;19.69;79.97;96969.34;5027695;28;20441;-74
2022/09/14 12:15:48;;;;;;;;;;;;;;;19.68;80.67;96967.78;5047258;28;19929;-73
2022/09/14 12:18:37;;;;;;;;;;;;;;;19.73;80.36;96970.16;5045370;28;19932;-74
2022/09/14 12:21:25;;;;;;;;;;;;;;;19.74;80.66;96981.94;5042922;28;20291;-74
2022/09/14 12:24:15;;;;;;;;;;;;;;;19.76;80.14;96969.38;5046096;28;19929;-73
2022/09/14 12:27:19;;;;;;;;;;;;;;;19.80;79.59;96970.13;5027190;28;19925;-73
2022/09/14 12:30:27;;;;;;;;;;;;;;;19.85;79.69;96960.69;5026781;28;19925;-73
2022/09/14 12:33:41;;;;;;;;;;;;;;;19.97;79.78;96967.75;5039513;28;20294;-73
2022/09/14 12:36:48;;;;;;;;;;;;;;;20.10;79.04;96963.41;5046336;28;20300;-73
2022/09/14 12:39:40;;;;;;;;;;;;;;;20.23;78.46;96959.03;5040002;28;19925;-73
2022/09/14 12:42:29;;;;;;;;;;;;;;;20.38;77.07;96955.06;5019544;28;20268;-73
2022/09/14 12:45:35;;;;;;;;;;;;;;;20.52;76.80;96968.06;5045711;28;19933;-75
2022/09/14 12:48:57;;;;;;;;;;;;;;;20.61;75.88;96967.63;5029515;28;20579;-75
2022/09/14 12:51:47;;;;;;;;;;;;;;;20.60;75.84;96966.84;4983812;28;20431;-75
2022/09/14 12:54:48;;;;;;;;;;;;;;;20.66;75.60;96965.22;4975324;28;19981;-74
2022/09/14 12:57:40;;;;;;;;;;;;;;;20.64;75.63;96956.56;4966636;28;20352;-73
2022/09/14 13:00:31;;;;;;;;;;;;;;;20.62;75.66;96955.41;4983186;28;20360;-74
2022/09/14 13:03:39;;;;;;;;;;;;;;;20.69;75.45;96954.59;4979979;28;19932;-74
2022/09/14 13:06:32;;;;;;;;;;;;;;;20.74;75.14;96959.69;4975287;28;19953;-74
2022/09/14 13:09:21;;;;;;;;;;;;;;;20.69;75.23;96962.88;4983987;28;19930;-74
2022/09/14 13:12:11;;;;;;;;;;;;;;;20.65;75.44;96957.34;4970259;28;19948;-73
2022/09/14 13:14:59;;;;;;;;;;;;;;;20.63;75.71;96952.25;4983521;28;20396;-74
2022/09/14 13:17:57;;;;;;;;;;;;;;;20.61;75.27;96970.38;4964186;28;20425;-74
2022/09/14 13:20:49;;;;;;;;;;;;;;;20.59;75.82;96970.78;4970383;28;20057;-74
2022/09/14 13:23:38;;;;;;;;;;;;;;;20.63;75.49;96965.25;5038193;28;19936;-74
2022/09/14 13:26:27;;;;;;;;;;;;;;;20.62;75.67;96960.94;5043026;28;19990;-73
2022/09/14 13:32:29;;;;;;;;;;;;;;;20.59;75.25;96954.22;5041678;28;19994;-74
2022/09/14 13:35:17;;;;;;;;;;;;;;;20.56;75.58;96954.22;5043254;28;19935;-74
2022/09/14 13:38:07;;;;;;;;;;;;;;;20.55;75.92;96949.91;5045524;28;19931;-74
2022/09/14 13:41:22;;;;;;;;;;;;;;;20.53;75.97;96950.31;5035310;28;20608;-74
2022/09/14 13:44:10;;;;;;;;;;;;;;;20.54;75.38;96931.78;5016762;28;20067;-73
2022/09/14 13:47:01;;;;;;;;;;;;;;;20.52;76.65;96929.44;5039612;28;19981;-74
2022/09/14 13:49:50;;;;;;;;;;;;;;;20.56;76.92;96921.13;5020747;28;19936;-73
2022/09/14 13:52:39;;;;;;;;;;;;;;;20.57;77.38;96919.97;5044041;28;19935;-73
2022/09/14 13:56:16;;;;;;;;;;;;;;;20.55;77.09;96919.56;5042780;28;19929;-74
2022/09/14 13:59:14;;;;;;;;;;;;;;;20.52;77.87;96904.59;5041517;28;19932;-74
2022/09/14 14:02:29;;;;;;;;;;;;;;;20.47;77.55;96904.22;5045510;28;19954;-74
2022/09/14 14:05:21;;;;;;;;;;;;;;;20.41;77.83;96892.81;5038536;28;20690;-75
2022/09/14 14:08:18;;;;;;;;;;;;;;;20.36;77.83;96885.72;5043665;28;19931;-73
2022/09/14 14:11:07;;;;;;;;;;;;;;;20.35;78.11;96886.91;5044550;28;20523;-73
2022/09/14 14:14:09;;;;;;;;;;;;;;;20.29;78.59;96882.19;5041080;28;19929;-74
2022/09/14 14:17:16;;;;;;;;;;;;;;;20.28;78.84;96881.41;5030190;28;20020;-73
2022/09/14 14:20:23;;;;;;;;;;;;;;;20.22;78.93;96891.28;5044556;28;19936;-74
2022/09/14 14:23:19;;;;;;;;;;;;;;;20.11;80.04;96874.00;5040031;28;20626;-74
2022/09/14 14:26:10;;;;;;;;;;;;;;;20.08;81.96;96863.75;5038470;28;19994;-73
2022/09/14 14:29:07;;;;;;;;;;;;;;;19.90;83.65;96861.06;5033654;28;19929;-74
2022/09/14 14:31:55;;;;;;;;;;;;;;;19.75;84.59;96871.31;5027598;28;19952;-74
2022/09/14 14:35:10;;;;;;;;;;;;;;;19.63;85.80;96883.53;5026375;28;20467;-74
2022/09/14 14:37:58;;;;;;;;;;;;;;;19.54;87.21;96885.09;5026787;28;20062;-75
2022/09/14 14:40:48;;;;;;;;;;;;;;;19.55;87.00;96883.94;5041403;28;19925;-73
2022/09/14 14:44:02;;;;;;;;;;;;;;;19.47;87.68;96937.44;5043876;28;19925;-74
2022/09/14 14:46:50;;;;;;;;;;;;;;;19.41;88.11;96972.84;5023513;28;19925;-73
2022/09/14 14:49:39;;;;;;;;;;;;;;;18.86;88.42;96923.63;5024183;28;19929;-73
2022/09/14 14:52:27;;;;;;;;;;;;;;;18.47;88.46;96904.97;5042523;28;19959;-73
2022/09/14 14:55:15;;;;;;;;;;;;;;;18.25;88.25;96909.59;5037240;28;19925;-74
2022/09/14 14:58:06;;;;;;;;;;;;;;;18.03;88.24;96913.41;5041032;28;20346;-74
2022/09/14 15:00:54;;;;;;;;;;;;;;;17.94;88.75;96901.97;5031728;28;20689;-74
2022/09/14 15:03:43;;;;;;;;;;;;;;;17.87;88.87;96905.47;5035384;28;19941;-74
2022/09/14 15:06:31;;;;;;;;;;;;;;;17.84;90.35;96921.94;5026223;28;19928;-74
2022/09/14 15:09:21;;;;;;;;;;;;;;;17.77;91.10;96925.41;5036527;28;19929;-73
2022/09/14 15:12:09;;;;;;;;;;;;;;;17.75;91.73;96923.06;5033242;28;19960;-73
2022/09/14 15:14:59;;;;;;;;;;;;;;;17.76;92.60;96919.16;5039676;28;19925;-74
2022/09/14 15:17:51;;;;;;;;;;;;;;;17.79;93.11;96923.88;5021602;28;20095;-73
2022/09/14 15:20:39;;;;;;;;;;;;;;;17.77;93.18;96915.22;5043642;28;19932;-73
2022/09/14 15:23:28;;;;;;;;;;;;;;;17.78;93.86;96943.47;5037022;28;19933;-74